Valley Farms, Arizona
Current Conditions -  °F | °C
As of 7:15 PM on Thursday 18 Dec 2014 (Local Time) from KCGZ Reporting Station
Clear Clear  
Wind Chill: 50°   Ceiling: Unl
Heat Index: 50°   Visibility: 10mi
Dew Point: 45°   Wind: 0mph
Humidity: 82%   Direction: NA
Pressure: 30.15"   Gusts: NA
Location:  32.99°N, 111.45°W
Report Text: KCGZ 190215Z AUTO 00000KT 10SM CLR 10/07 A3015 RMK AO1
Loading
Personal Weather Stations






























Interactive Weather Map New forecast layout! Learn more

10-Day Weather Forecast

Advertisements
Track Severe Weather on mobile